Time;durP1;ratioP1;P1;durP2;ratioP2;P2;SDS_P1;SDS_P2;PMS_P1;PMS_P2;Temp;Humidity;BMP_temperature;BMP_pressure;BME280_temperature;BME280_humidity;BME280_pressure;Samples;Min_cycle;Max_cycle;Signal;HPM_P1;HPM_P2
2023/09/05 00:00:16;;;;;;;2.92;2.15;;;14.80;99.90;;;;;;4981163;28;20070;-85
2023/09/05 00:02:43;;;;;;;1.63;1.52;;;14.80;99.90;;;;;;4979501;28;20033;-85
2023/09/05 00:05:09;;;;;;;2.10;1.90;;;14.70;99.90;;;;;;4980634;28;20085;-86
2023/09/05 00:07:36;;;;;;;2.15;1.95;;;14.70;99.90;;;;;;4970107;28;20031;-85
2023/09/05 00:10:13;;;;;;;2.33;2.13;;;14.70;99.90;;;;;;4980093;28;20027;-86
2023/09/05 00:12:42;;;;;;;1.92;1.83;;;14.70;99.90;;;;;;4975820;28;20035;-86
2023/09/05 00:15:11;;;;;;;2.70;2.50;;;14.70;99.90;;;;;;4985711;28;20023;-86
2023/09/05 00:17:37;;;;;;;2.40;2.00;;;14.80;99.90;;;;;;4973374;28;20054;-86
2023/09/05 00:20:04;;;;;;;2.50;2.13;;;14.80;99.90;;;;;;4973211;28;20058;-86
2023/09/05 00:22:30;;;;;;;2.38;2.17;;;14.80;99.90;;;;;;4974715;28;20038;-86
2023/09/05 00:24:55;;;;;;;3.05;1.88;;;14.90;99.90;;;;;;4980770;28;20117;-86
2023/09/05 00:27:21;;;;;;;2.60;2.40;;;14.80;99.90;;;;;;4990262;28;20026;-85
2023/09/05 00:29:46;;;;;;;3.63;2.10;;;14.80;99.90;;;;;;4976416;28;20026;-85
2023/09/05 00:32:13;;;;;;;2.75;2.40;;;14.80;99.90;;;;;;4981892;28;20406;-85
2023/09/05 00:34:39;;;;;;;3.38;2.30;;;14.70;99.90;;;;;;4976548;28;20177;-85
2023/09/05 00:37:08;;;;;;;2.33;2.13;;;14.70;99.90;;;;;;4984500;28;20047;-85
2023/09/05 00:39:35;;;;;;;2.65;2.05;;;14.70;99.90;;;;;;4988066;28;20041;-86
2023/09/05 00:42:09;;;;;;;2.47;2.00;;;14.60;99.90;;;;;;4983846;28;20398;-85
2023/09/05 00:44:35;;;;;;;2.15;1.95;;;14.60;99.90;;;;;;4977188;28;20137;-85
2023/09/05 00:47:01;;;;;;;2.20;2.00;;;14.60;99.90;;;;;;4959713;28;20722;-85
2023/09/05 00:49:39;;;;;;;3.72;2.25;;;14.60;99.90;;;;;;4985929;28;20026;-85
2023/09/05 00:52:06;;;;;;;2.20;1.98;;;14.60;99.90;;;;;;4979078;28;20089;-87
2023/09/05 00:54:34;;;;;;;2.08;1.88;;;14.50;99.90;;;;;;4982238;28;20532;-86
2023/09/05 00:57:00;;;;;;;3.47;1.90;;;14.50;99.90;;;;;;4977894;28;20029;-86
2023/09/05 00:59:26;;;;;;;2.47;2.00;;;14.50;99.90;;;;;;4981033;28;20030;-85
2023/09/05 01:01:54;;;;;;;1.92;1.83;;;14.40;99.90;;;;;;4983236;28;20034;-85
2023/09/05 01:04:19;;;;;;;2.25;2.05;;;14.40;99.90;;;;;;4985846;28;20130;-85
2023/09/05 01:07:08;;;;;;;2.33;2.13;;;14.40;99.90;;;;;;4983260;28;20537;-85
2023/09/05 01:09:40;;;;;;;2.50;2.30;;;14.40;99.90;;;;;;4991135;28;20030;-85
2023/09/05 01:12:07;;;;;;;2.55;2.20;;;14.40;99.90;;;;;;4978248;28;20599;-85
2023/09/05 01:14:33;;;;;;;2.67;2.00;;;14.30;99.90;;;;;;4986702;28;20027;-85
2023/09/05 01:17:01;;;;;;;2.15;1.95;;;14.30;99.90;;;;;;4988245;28;20375;-86
2023/09/05 01:19:28;;;;;;;2.03;1.85;;;14.30;99.90;;;;;;4989252;28;20027;-85
2023/09/05 01:21:56;;;;;;;3.53;2.63;;;14.30;99.90;;;;;;4977320;28;20015;-85
2023/09/05 01:24:22;;;;;;;2.00;1.80;;;14.20;99.90;;;;;;4975556;28;20026;-86
2023/09/05 01:26:51;;;;;;;2.03;1.92;;;14.20;99.90;;;;;;4991096;28;20441;-85
2023/09/05 01:29:29;;;;;;;1.77;1.67;;;14.20;99.90;;;;;;4974371;28;20019;-85
2023/09/05 01:31:58;;;;;;;2.47;2.28;;;14.20;99.90;;;;;;4970781;28;20552;-86
2023/09/05 01:34:24;;;;;;;2.38;2.20;;;14.20;99.90;;;;;;4969474;28;20019;-87
2023/09/05 01:36:49;;;;;;;2.67;2.47;;;14.20;99.90;;;;;;4972695;28;20018;-86
2023/09/05 01:39:15;;;;;;;2.53;2.20;;;14.10;99.90;;;;;;4975670;28;20660;-86
2023/09/05 01:41:41;;;;;;;2.08;1.92;;;14.10;99.90;;;;;;4984175;28;20165;-85
2023/09/05 01:44:07;;;;;;;2.85;2.55;;;14.10;99.90;;;;;;4980905;28;21068;-86
2023/09/05 01:46:32;;;;;;;2.50;2.30;;;14.00;99.90;;;;;;4979702;28;20121;-85
2023/09/05 01:48:58;;;;;;;2.40;2.20;;;14.00;99.90;;;;;;4981194;28;20413;-85
2023/09/05 01:51:23;;;;;;;2.38;2.17;;;14.00;99.90;;;;;;4982428;28;20672;-85
2023/09/05 01:53:49;;;;;;;2.22;2.03;;;14.00;99.90;;;;;;4966577;28;20027;-85
2023/09/05 01:56:15;;;;;;;2.92;2.58;;;14.00;99.90;;;;;;4984960;28;20046;-85
2023/09/05 01:58:40;;;;;;;2.22;2.03;;;14.00;99.90;;;;;;4977764;28;20026;-87
2023/09/05 02:01:06;;;;;;;2.53;2.33;;;14.00;99.90;;;;;;4979904;28;20034;-86
2023/09/05 02:03:32;;;;;;;2.30;2.15;;;14.00;99.90;;;;;;4979507;28;20031;-85
2023/09/05 02:05:58;;;;;;;4.57;2.67;;;14.00;99.90;;;;;;4970343;28;20205;-86
2023/09/05 02:08:23;;;;;;;3.10;2.78;;;14.00;99.90;;;;;;4973828;28;20014;-85
2023/09/05 02:10:49;;;;;;;3.55;2.42;;;14.00;99.90;;;;;;4975069;28;20032;-86
2023/09/05 02:13:16;;;;;;;3.80;2.78;;;14.10;99.90;;;;;;4982982;28;20050;-86
2023/09/05 02:15:42;;;;;;;3.88;2.55;;;14.10;99.90;;;;;;4971025;28;20035;-86
2023/09/05 02:18:11;;;;;;;3.15;2.83;;;14.20;99.90;;;;;;4979085;28;20025;-87
2023/09/05 02:20:38;;;;;;;3.20;2.60;;;14.20;99.90;;;;;;4973700;28;20018;-85
2023/09/05 02:23:04;;;;;;;3.50;2.67;;;14.20;99.90;;;;;;4976473;28;20037;-86
2023/09/05 02:25:29;;;;;;;3.08;2.78;;;14.20;99.90;;;;;;4973363;28;20478;-86
2023/09/05 02:27:55;;;;;;;3.70;3.10;;;14.20;99.90;;;;;;4982991;28;20018;-86
2023/09/05 02:30:21;;;;;;;4.68;2.72;;;14.20;99.90;;;;;;4975768;28;20027;-86
2023/09/05 02:32:53;;;;;;;2.75;2.55;;;14.20;99.90;;;;;;4982610;28;20730;-86
2023/09/05 02:35:21;;;;;;;3.38;2.83;;;14.30;99.90;;;;;;4973513;28;20034;-85
2023/09/05 02:37:51;;;;;;;2.53;2.33;;;14.30;99.90;;;;;;4978301;28;20386;-86
2023/09/05 02:40:17;;;;;;;2.83;2.50;;;14.30;99.90;;;;;;4977653;28;20054;-86
2023/09/05 02:42:43;;;;;;;2.85;2.65;;;14.20;99.90;;;;;;4983262;28;20030;-86
2023/09/05 02:45:09;;;;;;;2.80;2.60;;;14.30;99.90;;;;;;4985225;28;20023;-85
2023/09/05 02:47:35;;;;;;;4.20;2.63;;;14.20;99.90;;;;;;4984761;28;20120;-85
2023/09/05 02:50:01;;;;;;;2.95;2.65;;;14.20;99.90;;;;;;4982466;28;20166;-86
2023/09/05 02:52:26;;;;;;;3.22;2.92;;;14.20;99.90;;;;;;4975343;28;20042;-85
2023/09/05 02:54:52;;;;;;;2.90;2.70;;;14.20;99.90;;;;;;4972118;28;20035;-85
2023/09/05 02:57:18;;;;;;;3.35;2.92;;;14.10;99.90;;;;;;4988015;28;20033;-85
2023/09/05 02:59:43;;;;;;;3.90;2.65;;;14.20;99.90;;;;;;4972632;28;20121;-85
2023/09/05 03:02:09;;;;;;;3.05;2.78;;;14.20;99.90;;;;;;4991317;28;20031;-85
2023/09/05 03:04:34;;;;;;;2.53;2.33;;;14.10;99.90;;;;;;4992147;28;20030;-85
2023/09/05 03:07:03;;;;;;;2.60;2.40;;;14.10;99.90;;;;;;4977295;28;20454;-86
2023/09/05 03:09:29;;;;;;;2.95;2.65;;;14.10;99.90;;;;;;4979194;28;20488;-85
2023/09/05 03:11:55;;;;;;;3.40;2.80;;;14.10;99.90;;;;;;4983887;28;20007;-85
2023/09/05 03:14:21;;;;;;;2.85;2.47;;;14.10;99.90;;;;;;4991215;28;20099;-87
2023/09/05 03:16:47;;;;;;;3.03;2.63;;;14.10;99.90;;;;;;5007603;28;20025;-87
2023/09/05 03:19:13;;;;;;;2.60;2.40;;;14.10;99.90;;;;;;4999099;28;20078;-87
2023/09/05 03:21:39;;;;;;;3.33;3.03;;;14.10;99.90;;;;;;4991729;28;20023;-86
2023/09/05 03:24:04;;;;;;;3.83;2.67;;;14.10;99.90;;;;;;4990187;28;20054;-86
2023/09/05 03:26:30;;;;;;;3.55;2.70;;;14.10;99.90;;;;;;4992103;28;20022;-87
2023/09/05 03:28:56;;;;;;;2.95;2.55;;;14.10;99.90;;;;;;4986022;28;20026;-86
2023/09/05 03:31:24;;;;;;;3.35;2.78;;;14.10;99.90;;;;;;4987442;28;20030;-86
2023/09/05 03:33:50;;;;;;;2.75;2.55;;;14.10;99.90;;;;;;4986490;28;20030;-86
2023/09/05 03:36:15;;;;;;;2.67;2.47;;;14.10;99.90;;;;;;4983671;28;20019;-87
2023/09/05 03:38:41;;;;;;;2.95;2.65;;;14.10;99.90;;;;;;4985485;28;20437;-86
2023/09/05 03:41:08;;;;;;;3.30;2.75;;;14.10;99.90;;;;;;4983724;28;20030;-86
2023/09/05 03:43:34;;;;;;;3.13;2.83;;;14.10;99.90;;;;;;4984039;28;20038;-85
2023/09/05 03:46:00;;;;;;;3.85;2.88;;;14.10;99.90;;;;;;4980979;28;20035;-86
2023/09/05 03:48:25;;;;;;;3.90;3.28;;;14.10;99.90;;;;;;4985877;28;20310;-86
2023/09/05 03:50:51;;;;;;;4.50;2.83;;;14.10;99.90;;;;;;4990838;28;20038;-86
2023/09/05 03:53:16;;;;;;;3.25;3.00;;;14.10;99.90;;;;;;4984572;28;20030;-86
2023/09/05 03:55:42;;;;;;;2.97;2.78;;;14.10;99.90;;;;;;4976585;28;20031;-86
2023/09/05 03:58:08;;;;;;;3.13;2.88;;;14.10;99.90;;;;;;4989078;28;20022;-86
2023/09/05 04:00:34;;;;;;;3.00;2.70;;;14.10;99.90;;;;;;4987811;28;20034;-86
2023/09/05 04:03:04;;;;;;;3.60;2.75;;;14.00;99.90;;;;;;4978992;28;20033;-86
2023/09/05 04:05:32;;;;;;;3.22;2.92;;;14.00;99.90;;;;;;4972043;28;20034;-86
2023/09/05 04:07:58;;;;;;;3.88;2.95;;;14.00;99.90;;;;;;4985786;28;20118;-85
2023/09/05 04:10:23;;;;;;;3.58;3.28;;;14.00;99.90;;;;;;4980589;28;20051;-85
2023/09/05 04:12:52;;;;;;;3.35;3.05;;;14.00;99.90;;;;;;4986065;28;20060;-86
2023/09/05 04:15:21;;;;;;;2.97;2.70;;;14.00;99.90;;;;;;4979765;28;20105;-86
2023/09/05 04:17:47;;;;;;;4.53;3.63;;;14.00;99.90;;;;;;4987383;28;20731;-87
2023/09/05 04:20:13;;;;;;;3.00;2.70;;;14.00;99.90;;;;;;4983625;28;20027;-86
2023/09/05 04:22:39;;;;;;;3.75;2.67;;;14.00;99.90;;;;;;4982356;28;20026;-86
2023/09/05 04:25:06;;;;;;;3.17;2.88;;;14.00;99.90;;;;;;4972119;28;20027;-86
2023/09/05 04:27:32;;;;;;;2.92;2.63;;;14.00;99.90;;;;;;4977238;28;20037;-86
2023/09/05 04:29:58;;;;;;;4.22;3.80;;;14.00;99.90;;;;;;4988731;28;20027;-85
2023/09/05 04:32:28;;;;;;;4.10;3.67;;;14.00;99.90;;;;;;4976079;28;20031;-86
2023/09/05 04:34:56;;;;;;;4.68;3.58;;;14.00;99.90;;;;;;4977066;28;20401;-85
2023/09/05 04:37:21;;;;;;;3.15;2.85;;;14.00;99.90;;;;;;4977411;28;20446;-86
2023/09/05 04:39:47;;;;;;;3.97;3.60;;;13.90;99.90;;;;;;4971015;28;20026;-86
2023/09/05 04:42:12;;;;;;;3.80;3.40;;;13.90;99.90;;;;;;4982222;28;20023;-85
2023/09/05 04:44:38;;;;;;;3.40;3.10;;;14.00;99.90;;;;;;4981949;28;20041;-85
2023/09/05 04:47:19;;;;;;;4.15;3.28;;;14.00;99.90;;;;;;4981911;28;20037;-86
2023/09/05 04:49:44;;;;;;;3.55;3.25;;;13.90;99.90;;;;;;4981445;28;20553;-85
2023/09/05 04:52:12;;;;;;;3.70;3.40;;;13.90;99.90;;;;;;4982898;28;20041;-86
2023/09/05 04:54:37;;;;;;;5.65;3.17;;;13.90;99.90;;;;;;4976964;28;20690;-86
2023/09/05 04:57:03;;;;;;;3.90;3.40;;;13.90;99.90;;;;;;4982197;28;20038;-86
2023/09/05 04:59:29;;;;;;;4.57;3.40;;;14.00;99.90;;;;;;4974761;28;20023;-86
2023/09/05 05:01:54;;;;;;;3.38;3.10;;;13.90;99.90;;;;;;4986132;28;20027;-85
2023/09/05 05:04:22;;;;;;;4.38;3.10;;;13.90;99.90;;;;;;4983310;28;20463;-85
2023/09/05 05:06:47;;;;;;;3.13;2.83;;;13.90;99.90;;;;;;4975299;28;20025;-85
2023/09/05 05:09:13;;;;;;;3.65;3.35;;;13.90;99.90;;;;;;4985858;28;20018;-86
2023/09/05 05:11:39;;;;;;;3.70;3.30;;;13.90;99.90;;;;;;4976109;28;20042;-86
2023/09/05 05:14:04;;;;;;;3.53;3.20;;;13.90;99.90;;;;;;4984432;28;20030;-85
2023/09/05 05:16:30;;;;;;;3.47;3.15;;;13.90;99.90;;;;;;4978554;28;20027;-86
2023/09/05 05:18:56;;;;;;;3.88;3.55;;;13.90;99.90;;;;;;4983968;28;20105;-86
2023/09/05 05:21:21;;;;;;;5.97;3.95;;;13.90;99.90;;;;;;4984369;28;20287;-85
2023/09/05 05:23:47;;;;;;;4.45;3.65;;;14.00;99.90;;;;;;4974860;28;20026;-86
2023/09/05 05:26:13;;;;;;;4.65;3.38;;;14.00;99.90;;;;;;4984799;28;20374;-85
2023/09/05 05:28:39;;;;;;;5.18;3.70;;;14.00;99.90;;;;;;4972275;28;20032;-86
2023/09/05 05:31:14;;;;;;;4.82;3.80;;;14.00;99.90;;;;;;4982525;28;20030;-86
2023/09/05 05:33:40;;;;;;;10.00;3.53;;;13.90;99.90;;;;;;4977848;28;20035;-85
2023/09/05 05:36:05;;;;;;;4.65;3.50;;;14.00;99.90;;;;;;4983445;28;20113;-86
2023/09/05 05:38:31;;;;;;;4.50;4.00;;;14.00;99.90;;;;;;4978129;28;20061;-86
2023/09/05 05:40:58;;;;;;;3.60;3.30;;;14.00;99.90;;;;;;4983125;28;20044;-86
2023/09/05 05:43:27;;;;;;;4.15;3.53;;;14.00;99.90;;;;;;4983363;28;20046;-86
2023/09/05 05:45:53;;;;;;;3.72;3.35;;;14.10;99.90;;;;;;4973889;28;20030;-84
2023/09/05 05:48:19;;;;;;;3.90;3.50;;;14.10;99.90;;;;;;4984218;28;20110;-87
2023/09/05 05:50:45;;;;;;;3.80;3.40;;;14.10;99.90;;;;;;4976791;28;20578;-86
2023/09/05 05:53:10;;;;;;;4.13;3.72;;;14.10;99.90;;;;;;4973482;28;20022;-86
2023/09/05 05:55:36;;;;;;;5.18;3.70;;;14.20;99.90;;;;;;4985305;28;20034;-86
2023/09/05 05:58:01;;;;;;;3.97;3.60;;;14.20;99.90;;;;;;4974110;28;20070;-86
2023/09/05 06:00:29;;;;;;;4.45;3.67;;;14.20;99.90;;;;;;4972358;28;20055;-85
2023/09/05 06:02:55;;;;;;;4.82;3.63;;;14.30;99.90;;;;;;4974674;28;20113;-86
2023/09/05 06:05:22;;;;;;;5.28;4.03;;;14.30;99.90;;;;;;4970504;28;20086;-86
2023/09/05 06:07:49;;;;;;;4.47;3.92;;;14.40;99.90;;;;;;4978935;28;20030;-87
2023/09/05 06:10:16;;;;;;;7.20;4.30;;;14.40;99.90;;;;;;4975394;28;20051;-86
2023/09/05 06:12:41;;;;;;;8.68;4.28;;;14.50;99.90;;;;;;4970880;28;20031;-87
2023/09/05 06:15:08;;;;;;;3.88;3.58;;;14.60;99.90;;;;;;4977335;28;20090;-86
2023/09/05 06:17:33;;;;;;;4.30;3.90;;;14.60;99.90;;;;;;4979643;28;20568;-86
2023/09/05 06:20:05;;;;;;;5.85;4.28;;;14.60;99.90;;;;;;4979584;28;20035;-86
2023/09/05 06:22:31;;;;;;;6.07;4.13;;;14.60;99.90;;;;;;4972168;28;20027;-85
2023/09/05 06:24:56;;;;;;;4.20;3.80;;;14.80;99.90;;;;;;4984961;28;20026;-86
2023/09/05 06:27:22;;;;;;;4.68;4.28;;;14.80;99.90;;;;;;4972757;28;20030;-86
2023/09/05 06:29:47;;;;;;;5.35;4.13;;;14.80;99.90;;;;;;4978987;28;20030;-86
2023/09/05 06:32:13;;;;;;;4.40;4.00;;;14.90;99.90;;;;;;4978535;28;20039;-86
2023/09/05 06:34:40;;;;;;;5.70;4.43;;;15.00;99.90;;;;;;4984304;28;20112;-86
2023/09/05 06:37:05;;;;;;;5.28;4.38;;;15.00;99.90;;;;;;4976317;28;20019;-82
2023/09/05 06:39:34;;;;;;;4.70;4.00;;;15.10;99.90;;;;;;4972766;28;20034;-83
2023/09/05 06:41:59;;;;;;;4.30;3.90;;;15.20;99.90;;;;;;4983636;28;20034;-83
2023/09/05 06:44:29;;;;;;;4.80;4.40;;;15.30;99.90;;;;;;4976709;28;20027;-83
2023/09/05 06:46:54;;;;;;;5.47;4.55;;;15.30;99.90;;;;;;4987523;28;20033;-83
2023/09/05 06:49:20;;;;;;;4.60;3.80;;;15.50;99.90;;;;;;4977478;28;20031;-82
2023/09/05 06:51:45;;;;;;;5.65;4.20;;;15.50;99.90;;;;;;4974004;28;20086;-83
2023/09/05 06:54:11;;;;;;;7.05;4.45;;;15.60;99.90;;;;;;4982111;28;20026;-83
2023/09/05 06:56:36;;;;;;;4.47;4.07;;;15.70;99.90;;;;;;4985992;28;20027;-82
2023/09/05 06:59:02;;;;;;;5.25;4.22;;;15.80;99.90;;;;;;4982073;28;20019;-82
2023/09/05 07:01:29;;;;;;;4.15;3.75;;;15.90;99.90;;;;;;4972740;28;20086;-87
2023/09/05 07:03:54;;;;;;;4.55;3.80;;;16.00;99.90;;;;;;4975116;28;20074;-88
2023/09/05 07:06:21;;;;;;;4.43;4.03;;;16.10;99.90;;;;;;4971461;28;20065;-88
2023/09/05 07:08:47;;;;;;;6.18;3.95;;;16.20;99.90;;;;;;4981483;28;20027;-85
2023/09/05 07:11:12;;;;;;;4.65;3.83;;;16.40;99.90;;;;;;4985683;28;20029;-88
2023/09/05 07:13:38;;;;;;;4.60;4.05;;;16.50;99.90;;;;;;5010072;28;20018;-89
2023/09/05 07:16:03;;;;;;;5.40;3.55;;;16.70;99.90;;;;;;4999885;28;20030;-89
2023/09/05 07:18:29;;;;;;;5.45;4.18;;;16.80;99.90;;;;;;4990716;28;20027;-87
2023/09/05 07:20:54;;;;;;;3.88;3.47;;;17.00;99.90;;;;;;4974533;28;20022;-88
2023/09/05 07:23:20;;;;;;;3.95;3.42;;;17.10;99.90;;;;;;4983520;28;20019;-87
2023/09/05 07:25:46;;;;;;;5.15;4.20;;;17.30;99.90;;;;;;4974551;28;20521;-88
2023/09/05 07:28:11;;;;;;;5.95;4.13;;;17.40;99.90;;;;;;4972294;28;20169;-87
2023/09/05 07:30:37;;;;;;;3.60;3.30;;;17.60;99.90;;;;;;4981876;28;20039;-87
2023/09/05 07:33:03;;;;;;;4.10;3.22;;;17.90;99.90;;;;;;4987737;28;20025;-88
2023/09/05 07:35:28;;;;;;;3.70;3.33;;;18.00;99.90;;;;;;4977795;28;20031;-88
2023/09/05 07:37:54;;;;;;;3.40;3.05;;;18.20;99.90;;;;;;4982613;28;20025;-87
2023/09/05 07:40:22;;;;;;;5.18;3.40;;;18.40;99.90;;;;;;4968929;28;20019;-83
2023/09/05 07:42:48;;;;;;;3.97;3.47;;;18.60;99.90;;;;;;4984717;28;20019;-84
2023/09/05 07:45:13;;;;;;;3.50;3.13;;;18.80;99.90;;;;;;4983278;28;20457;-83
2023/09/05 07:47:39;;;;;;;4.85;3.20;;;19.00;99.90;;;;;;4977061;28;20045;-83
2023/09/05 07:50:05;;;;;;;3.75;3.40;;;19.10;99.90;;;;;;4979801;28;20027;-83
2023/09/05 07:52:32;;;;;;;7.47;3.60;;;19.30;99.90;;;;;;4981886;28;20046;-83
2023/09/05 07:54:58;;;;;;;2.97;2.72;;;19.50;99.90;;;;;;4970974;28;20505;-83
2023/09/05 07:57:24;;;;;;;3.17;2.88;;;19.50;99.90;;;;;;4973822;28;20023;-83
2023/09/05 07:59:49;;;;;;;3.13;2.90;;;19.70;99.90;;;;;;4977794;28;20019;-83
2023/09/05 08:02:15;;;;;;;3.00;2.72;;;19.80;99.90;;;;;;4969093;28;20026;-83
2023/09/05 08:04:40;;;;;;;4.38;3.33;;;19.90;99.90;;;;;;4979098;28;20027;-84
2023/09/05 08:07:06;;;;;;;3.08;2.78;;;19.90;99.90;;;;;;4979164;28;20033;-84
2023/09/05 08:09:33;;;;;;;3.83;2.78;;;20.10;99.90;;;;;;4978360;28;20026;-84
2023/09/05 08:11:58;;;;;;;2.97;2.67;;;20.20;99.90;;;;;;4978544;28;20108;-84
2023/09/05 08:14:24;;;;;;;2.42;2.22;;;20.30;99.90;;;;;;4981627;28;20433;-84
2023/09/05 08:16:50;;;;;;;3.42;2.70;;;20.40;99.90;;;;;;4967929;28;20465;-83
2023/09/05 08:19:15;;;;;;;3.97;2.45;;;20.60;99.90;;;;;;4969975;28;20105;-83
2023/09/05 08:21:41;;;;;;;2.88;2.67;;;20.60;99.90;;;;;;4981895;28;20103;-84
2023/09/05 08:24:09;;;;;;;2.85;2.53;;;20.70;99.90;;;;;;4976255;28;20030;-83
2023/09/05 08:26:34;;;;;;;2.90;2.60;;;20.80;99.90;;;;;;4978972;28;20037;-83
2023/09/05 08:29:03;;;;;;;4.75;2.88;;;20.80;99.90;;;;;;4980360;28;20023;-84
2023/09/05 08:31:32;;;;;;;4.13;2.47;;;20.90;99.90;;;;;;4977608;28;20046;-83
2023/09/05 08:33:58;;;;;;;5.55;3.00;;;20.90;99.90;;;;;;4983765;28;20034;-83
2023/09/05 08:36:24;;;;;;;3.90;2.30;;;20.90;99.90;;;;;;4982933;28;20041;-83
2023/09/05 08:38:50;;;;;;;3.92;2.53;;;21.00;99.90;;;;;;4978211;28;20076;-83
2023/09/05 08:41:15;;;;;;;3.20;2.65;;;21.10;99.90;;;;;;4986928;28;20094;-83
2023/09/05 08:43:41;;;;;;;5.35;4.78;;;21.20;99.90;;;;;;4980865;28;20481;-84
2023/09/05 08:46:07;;;;;;;4.13;3.55;;;21.20;99.90;;;;;;4979756;28;20037;-83
2023/09/05 08:48:33;;;;;;;8.20;3.00;;;21.30;99.90;;;;;;4972190;28;20122;-83
2023/09/05 08:51:00;;;;;;;2.58;2.38;;;21.40;99.90;;;;;;4977536;28;20589;-84
2023/09/05 08:53:40;;;;;;;2.78;2.55;;;21.40;99.90;;;;;;4968165;28;20082;-83
2023/09/05 08:56:07;;;;;;;4.38;2.08;;;21.50;99.90;;;;;;4984980;28;20038;-83
2023/09/05 08:58:34;;;;;;;2.58;2.30;;;21.50;99.90;;;;;;4982447;28;20039;-83
2023/09/05 09:00:59;;;;;;;3.22;2.78;;;21.50;99.90;;;;;;4985351;28;20085;-84
2023/09/05 09:03:26;;;;;;;2.50;2.30;;;21.60;99.90;;;;;;4980256;28;20031;-83
2023/09/05 09:05:52;;;;;;;2.45;2.25;;;21.60;99.90;;;;;;4970288;28;20022;-84
2023/09/05 09:08:19;;;;;;;3.22;2.47;;;21.70;99.90;;;;;;4984308;28;20063;-83
2023/09/05 09:11:05;;;;;;;2.35;2.00;;;21.70;99.90;;;;;;4983423;28;20034;-83
2023/09/05 09:13:31;;;;;;;3.65;2.25;;;21.80;99.90;;;;;;4977612;28;20027;-83
2023/09/05 09:15:56;;;;;;;2.33;2.13;;;21.80;99.90;;;;;;4978340;28;20026;-83
2023/09/05 09:18:22;;;;;;;3.67;2.22;;;21.80;99.90;;;;;;4982076;28;20034;-83
2023/09/05 09:20:51;;;;;;;4.63;2.60;;;21.90;99.90;;;;;;4982798;28;20025;-82
2023/09/05 09:23:27;;;;;;;3.15;2.10;;;21.90;99.90;;;;;;4983000;28;20096;-83
2023/09/05 09:25:57;;;;;;;2.70;2.10;;;21.90;99.90;;;;;;4971012;28;20033;-84
2023/09/05 09:28:26;;;;;;;2.40;2.20;;;22.00;99.90;;;;;;4974517;28;20485;-83
2023/09/05 09:30:56;;;;;;;4.97;2.88;;;22.00;99.90;;;;;;4971458;28;20042;-83
2023/09/05 09:33:22;;;;;;;3.20;2.70;;;22.10;99.90;;;;;;4974512;28;20105;-83
2023/09/05 09:36:10;;;;;;;3.30;2.55;;;22.10;99.90;;;;;;4979623;28;20133;-84
2023/09/05 09:38:38;;;;;;;3.10;2.25;;;22.20;99.90;;;;;;4967894;28;20051;-84
2023/09/05 09:41:06;;;;;;;2.58;2.30;;;22.30;99.90;;;;;;4974397;28;20018;-84
2023/09/05 09:43:36;;;;;;;2.50;2.30;;;22.30;99.90;;;;;;4981318;28;20030;-83
2023/09/05 09:46:08;;;;;;;2.92;2.25;;;22.30;99.90;;;;;;4977746;28;20046;-83
2023/09/05 09:48:38;;;;;;;2.20;2.00;;;22.40;99.90;;;;;;4971915;28;20027;-83
2023/09/05 09:51:05;;;;;;;4.15;1.98;;;22.40;99.90;;;;;;4974338;28;20058;-84
2023/09/05 09:53:36;;;;;;;2.55;2.35;;;22.50;99.90;;;;;;4974146;28;20027;-85
2023/09/05 09:56:09;;;;;;;3.95;2.38;;;22.50;99.90;;;;;;4983196;28;20030;-84
2023/09/05 09:58:38;;;;;;;4.40;2.35;;;22.50;99.90;;;;;;4971821;28;20023;-84
2023/09/05 10:01:06;;;;;;;2.63;2.08;;;22.50;99.90;;;;;;4985510;28;20065;-84
2023/09/05 10:03:31;;;;;;;3.10;2.10;;;22.60;99.90;;;;;;4972688;28;20019;-83
2023/09/05 10:06:00;;;;;;;2.67;2.30;;;22.70;99.90;;;;;;4974985;28;20497;-83
2023/09/05 10:08:28;;;;;;;2.63;2.10;;;22.70;99.90;;;;;;4973284;28;20031;-83
2023/09/05 10:10:54;;;;;;;2.33;2.13;;;22.80;99.90;;;;;;4976676;28;20018;-84
2023/09/05 10:13:24;;;;;;;2.00;1.90;;;22.80;99.90;;;;;;4976792;28;20401;-83
2023/09/05 10:15:52;;;;;;;2.30;2.10;;;22.90;99.90;;;;;;4973644;28;20041;-84
2023/09/05 10:18:19;;;;;;;3.08;2.47;;;22.90;99.90;;;;;;4975400;28;20073;-83
2023/09/05 10:20:46;;;;;;;2.72;2.47;;;23.00;99.90;;;;;;4979519;28;20030;-83
2023/09/05 10:23:14;;;;;;;4.10;2.85;;;23.00;99.90;;;;;;4970726;28;20018;-83
2023/09/05 10:25:41;;;;;;;3.38;2.00;;;23.10;99.90;;;;;;4976880;28;20121;-82
2023/09/05 10:28:07;;;;;;;2.53;2.17;;;23.20;99.90;;;;;;4985454;28;20786;-84
2023/09/05 10:30:46;;;;;;;2.20;1.90;;;23.20;99.90;;;;;;4981211;28;20066;-83
2023/09/05 10:33:13;;;;;;;2.95;2.20;;;23.20;99.90;;;;;;4980551;28;20033;-82
2023/09/05 10:35:45;;;;;;;2.17;1.98;;;23.20;99.90;;;;;;4971205;28;20031;-83
2023/09/05 10:38:13;;;;;;;2.40;2.05;;;23.30;99.90;;;;;;4962617;28;20054;-84
2023/09/05 10:40:40;;;;;;;1.73;1.58;;;23.40;99.90;;;;;;4973308;28;20030;-83
2023/09/05 10:43:21;;;;;;;2.10;1.80;;;23.50;99.90;;;;;;4983139;28;20023;-84
2023/09/05 10:46:00;;;;;;;2.55;1.90;;;23.50;99.90;;;;;;4971110;28;20486;-83
2023/09/05 10:48:45;;;;;;;1.83;1.67;;;23.60;99.90;;;;;;4973246;28;20031;-84
2023/09/05 10:51:13;;;;;;;2.43;1.90;;;23.60;99.90;;;;;;4974660;28;20371;-83
2023/09/05 10:53:40;;;;;;;5.15;2.30;;;23.70;99.90;;;;;;4974593;28;20106;-84
2023/09/05 10:56:43;;;;;;;1.90;1.70;;;23.80;99.90;;;;;;4974648;28;20656;-86
2023/09/05 10:59:30;;;;;;;2.30;1.80;;;23.80;99.90;;;;;;4977310;28;20058;-86
2023/09/05 11:02:02;;;;;;;1.63;1.35;;;24.00;99.90;;;;;;4975133;28;20030;-86
2023/09/05 11:04:29;;;;;;;2.95;1.90;;;24.00;99.90;;;;;;4987926;28;20026;-86
2023/09/05 11:07:07;;;;;;;2.55;1.60;;;24.00;99.90;;;;;;4980879;28;20023;-86
2023/09/05 11:09:40;;;;;;;2.00;1.80;;;24.00;99.90;;;;;;4982474;28;20038;-85
2023/09/05 11:12:06;;;;;;;3.08;1.70;;;24.00;99.90;;;;;;4980106;28;20022;-85
2023/09/05 11:14:34;;;;;;;1.77;1.60;;;24.10;99.90;;;;;;4984617;28;20026;-86
2023/09/05 11:17:01;;;;;;;4.20;2.00;;;24.20;99.90;;;;;;4995226;28;20026;-85
2023/09/05 11:19:42;;;;;;;2.15;1.52;;;24.20;99.90;;;;;;5001529;28;20037;-85
2023/09/05 11:22:14;;;;;;;3.80;1.80;;;24.30;99.90;;;;;;4995787;28;20042;-84
2023/09/05 11:24:47;;;;;;;3.45;1.80;;;24.40;99.90;;;;;;4988503;28;20026;-85
2023/09/05 11:27:25;;;;;;;1.65;1.50;;;24.50;99.90;;;;;;4979541;28;20546;-85
2023/09/05 11:29:55;;;;;;;2.10;1.90;;;24.60;99.90;;;;;;4976416;28;20081;-86
2023/09/05 11:32:31;;;;;;;2.92;1.85;;;24.60;99.90;;;;;;4978422;28;20030;-85
2023/09/05 11:34:57;;;;;;;;;;;24.70;99.90;;;;;;4965995;28;20034;-86
2023/09/05 11:37:22;;;;;;;3.60;1.92;;;24.80;99.90;;;;;;4976176;28;20004;-86
2023/09/05 11:39:49;;;;;;;1.75;1.65;;;24.80;99.90;;;;;;4976069;28;20069;-86
2023/09/05 11:42:20;;;;;;;1.73;1.55;;;24.90;99.90;;;;;;4984322;28;20034;-85
2023/09/05 11:44:46;;;;;;;4.00;1.60;;;25.00;99.90;;;;;;4983895;28;20057;-85
2023/09/05 11:47:13;;;;;;;4.35;1.77;;;25.00;99.90;;;;;;4980548;28;20027;-86
2023/09/05 11:49:39;;;;;;;2.80;1.45;;;25.10;99.90;;;;;;4981579;28;20055;-86
2023/09/05 11:52:06;;;;;;;2.03;1.88;;;25.10;99.90;;;;;;4984453;28;20169;-86
2023/09/05 11:54:32;;;;;;;2.50;1.73;;;25.10;99.90;;;;;;4983301;28;20034;-85
2023/09/05 11:56:58;;;;;;;1.77;1.55;;;25.20;99.90;;;;;;4979814;28;20019;-86
2023/09/05 11:59:25;;;;;;;2.28;1.73;;;25.30;99.90;;;;;;4970028;28;20106;-86
2023/09/05 12:01:52;;;;;;;1.60;1.50;;;25.30;99.90;;;;;;4972396;28;20118;-85
2023/09/05 12:04:18;;;;;;;2.55;1.58;;;25.30;99.90;;;;;;4976555;28;20026;-85
2023/09/05 12:06:51;;;;;;;2.35;1.52;;;25.30;99.90;;;;;;4971256;28;20438;-85
2023/09/05 12:09:19;;;;;;;1.45;1.35;;;25.40;99.90;;;;;;4961298;28;20035;-85
2023/09/05 12:11:45;;;;;;;1.75;1.65;;;25.30;99.90;;;;;;4957242;28;20031;-85
2023/09/05 12:14:11;;;;;;;1.40;1.27;;;25.40;99.90;;;;;;4983275;28;20037;-86
2023/09/05 12:16:36;;;;;;;2.53;1.65;;;25.40;99.90;;;;;;4985749;28;20030;-86
2023/09/05 12:19:02;;;;;;;3.03;1.85;;;25.50;99.90;;;;;;4977438;28;20272;-87
2023/09/05 12:21:42;;;;;;;2.92;1.80;;;25.60;99.90;;;;;;4981249;28;20030;-84
2023/09/05 12:24:22;;;;;;;3.17;1.95;;;25.60;99.90;;;;;;4972574;28;20027;-86
2023/09/05 12:26:59;;;;;;;1.90;1.70;;;25.70;99.90;;;;;;4962365;28;20027;-86
2023/09/05 12:29:41;;;;;;;2.85;1.42;;;25.70;99.90;;;;;;4979651;28;20018;-86
2023/09/05 12:32:07;;;;;;;2.00;1.75;;;25.80;99.90;;;;;;4958039;28;20023;-85
2023/09/05 12:34:33;;;;;;;2.25;1.50;;;25.80;99.90;;;;;;4971782;28;20058;-86
2023/09/05 12:36:58;;;;;;;3.47;1.88;;;25.80;99.90;;;;;;4979759;28;20474;-86
2023/09/05 12:39:24;;;;;;;2.10;1.58;;;25.80;99.90;;;;;;4974307;28;20381;-86
2023/09/05 12:41:50;;;;;;;1.50;1.40;;;25.90;99.90;;;;;;4976329;28;20470;-86
2023/09/05 12:44:16;;;;;;;3.05;1.45;;;26.00;99.90;;;;;;4975041;28;20655;-86
2023/09/05 12:46:42;;;;;;;1.88;1.70;;;26.10;99.90;;;;;;4979079;28;20080;-86
2023/09/05 12:49:10;;;;;;;1.80;1.55;;;26.10;99.90;;;;;;4985714;28;20098;-86